UAE721 OEMA-OEJN
Flight info
| Callsign | UAE721 |
|---|---|
| Flight time | 0h 48m |
| Altitude | 32000 |
| Route | SISUD B544 RBG/N0467F310 B544 NOMDA |
| Aircraft | A20N/M-SDE2E3FGHIRWXY/LB1 |
Departure
| Time | 2026-04-27 11:30 |
|---|---|
| Airport | Prince Mohammad Bin Abdulaziz Airport (OEMA) |
Arrival
| Time | 2026-04-27 12:18 |
|---|---|
| Airport | King Abdulaziz International Airport (OEJN) |
| Time | Latitude | Longitude | Altitude | Speed | Heading |
|---|---|---|---|---|---|
| 2026-04-27 11:08 | 24.55966 | 39.71199 | 2115 ft | 0 kts | 78° |
| 2026-04-27 11:16 | 24.55966 | 39.71197 | 2115 ft | 2 kts | 78° |
| 2026-04-27 11:16 | 24.55960 | 39.71170 | 2116 ft | 4 kts | 76° |
| 2026-04-27 11:16 | 24.55954 | 39.71142 | 2115 ft | 4 kts | 73° |
| 2026-04-27 11:16 | 24.55945 | 39.71114 | 2116 ft | 4 kts | 64° |
| 2026-04-27 11:17 | 24.55931 | 39.71091 | 2116 ft | 4 kts | 26° |
| 2026-04-27 11:17 | 24.55921 | 39.71087 | 2117 ft | 1 kts | 348° |
| 2026-04-27 11:21 | 24.55930 | 39.71085 | 2116 ft | 2 kts | 349° |
| 2026-04-27 11:21 | 24.55950 | 39.71081 | 2115 ft | 4 kts | 349° |
| 2026-04-27 11:21 | 24.55982 | 39.71074 | 2115 ft | 5 kts | 349° |
| 2026-04-27 11:21 | 24.56022 | 39.71066 | 2116 ft | 6 kts | 349° |
| 2026-04-27 11:22 | 24.56030 | 39.71064 | 2118 ft | 0 kts | 348° |
| 2026-04-27 11:22 | 24.56031 | 39.71063 | 2118 ft | 0 kts | 338° |
| 2026-04-27 11:22 | 24.56029 | 39.71042 | 2116 ft | 8 kts | 253° |
| 2026-04-27 11:22 | 24.56005 | 39.70968 | 2115 ft | 12 kts | 257° |
| 2026-04-27 11:23 | 24.56008 | 39.70890 | 2114 ft | 11 kts | 295° |
| 2026-04-27 11:23 | 24.56079 | 39.70857 | 2117 ft | 12 kts | 349° |
| 2026-04-27 11:23 | 24.56134 | 39.70844 | 2119 ft | 12 kts | 348° |
| 2026-04-27 11:23 | 24.56248 | 39.70820 | 2120 ft | 13 kts | 348° |
| 2026-04-27 11:24 | 24.56338 | 39.70800 | 2122 ft | 13 kts | 350° |
| 2026-04-27 11:24 | 24.56432 | 39.70781 | 2123 ft | 14 kts | 349° |
| 2026-04-27 11:24 | 24.56535 | 39.70759 | 2127 ft | 16 kts | 349° |
| 2026-04-27 11:24 | 24.56649 | 39.70735 | 2126 ft | 17 kts | 349° |
| 2026-04-27 11:25 | 24.56727 | 39.70718 | 2127 ft | 18 kts | 349° |
| 2026-04-27 11:25 | 24.56851 | 39.70692 | 2128 ft | 19 kts | 349° |
| 2026-04-27 11:25 | 24.56981 | 39.70665 | 2130 ft | 19 kts | 349° |
| 2026-04-27 11:25 | 24.57114 | 39.70636 | 2132 ft | 20 kts | 349° |
| 2026-04-27 11:26 | 24.57249 | 39.70607 | 2134 ft | 20 kts | 349° |
| 2026-04-27 11:26 | 24.57375 | 39.70580 | 2137 ft | 13 kts | 349° |
| 2026-04-27 11:26 | 24.57466 | 39.70560 | 2139 ft | 14 kts | 349° |
| 2026-04-27 11:26 | 24.57559 | 39.70541 | 2141 ft | 13 kts | 349° |
| 2026-04-27 11:27 | 24.57617 | 39.70528 | 2142 ft | 7 kts | 343° |
| 2026-04-27 11:27 | 24.57651 | 39.70492 | 2142 ft | 6 kts | 288° |
| 2026-04-27 11:27 | 24.57651 | 39.70467 | 2142 ft | 0 kts | 262° |
| 2026-04-27 11:28 | 24.57651 | 39.70463 | 2142 ft | 2 kts | 262° |
| 2026-04-27 11:28 | 24.57647 | 39.70439 | 2143 ft | 5 kts | 261° |
| 2026-04-27 11:28 | 24.57640 | 39.70396 | 2143 ft | 7 kts | 258° |
| 2026-04-27 11:28 | 24.57611 | 39.70346 | 2143 ft | 9 kts | 207° |
| 2026-04-27 11:29 | 24.57574 | 39.70350 | 2140 ft | 0 kts | 170° |
| 2026-04-27 11:29 | 24.57438 | 39.70378 | 2136 ft | 55 kts | 168° |
| 2026-04-27 11:29 | 24.56837 | 39.70502 | 2127 ft | 119 kts | 168° |
| 2026-04-27 11:30 | 24.55847 | 39.70715 | 2111 ft | 167 kts | 169° |
| 2026-04-27 11:30 | 24.54633 | 39.70947 | 2434 ft | 179 kts | 169° |
| 2026-04-27 11:30 | 24.53408 | 39.71175 | 3085 ft | 179 kts | 167° |
| 2026-04-27 11:30 | 24.52164 | 39.71492 | 3631 ft | 186 kts | 168° |
| 2026-04-27 11:31 | 24.50868 | 39.71774 | 4020 ft | 201 kts | 171° |
| 2026-04-27 11:31 | 24.49418 | 39.72023 | 4295 ft | 220 kts | 172° |
| 2026-04-27 11:31 | 24.47815 | 39.72311 | 4584 ft | 246 kts | 169° |
| 2026-04-27 11:31 | 24.46046 | 39.72698 | 5103 ft | 268 kts | 169° |
| 2026-04-27 11:32 | 24.44202 | 39.73114 | 6031 ft | 273 kts | 169° |
| 2026-04-27 11:32 | 24.42323 | 39.73533 | 6999 ft | 277 kts | 169° |
| 2026-04-27 11:32 | 24.40434 | 39.73946 | 7656 ft | 282 kts | 169° |
| 2026-04-27 11:32 | 24.38498 | 39.74363 | 8066 ft | 285 kts | 169° |
| 2026-04-27 11:33 | 24.36912 | 39.74702 | 8731 ft | 287 kts | 169° |
| 2026-04-27 11:33 | 24.34890 | 39.75056 | 9757 ft | 288 kts | 178° |
| 2026-04-27 11:33 | 24.32903 | 39.74789 | 10512 ft | 298 kts | 197° |
| 2026-04-27 11:33 | 24.31011 | 39.73869 | 10856 ft | 320 kts | 207° |
| 2026-04-27 11:34 | 24.28990 | 39.72723 | 11206 ft | 340 kts | 208° |
| 2026-04-27 11:34 | 24.26861 | 39.71515 | 11964 ft | 345 kts | 207° |
| 2026-04-27 11:34 | 24.24709 | 39.70304 | 12791 ft | 349 kts | 207° |
| 2026-04-27 11:34 | 24.22521 | 39.69080 | 13583 ft | 353 kts | 207° |
| 2026-04-27 11:35 | 24.20337 | 39.67863 | 14342 ft | 357 kts | 207° |
| 2026-04-27 11:35 | 24.18090 | 39.66614 | 15090 ft | 361 kts | 207° |
| 2026-04-27 11:35 | 24.15855 | 39.65371 | 15804 ft | 365 kts | 207° |
| 2026-04-27 11:35 | 24.13576 | 39.64104 | 16507 ft | 369 kts | 207° |
| 2026-04-27 11:36 | 24.11264 | 39.62818 | 17196 ft | 373 kts | 207° |
| 2026-04-27 11:36 | 24.08931 | 39.61522 | 17860 ft | 377 kts | 207° |
| 2026-04-27 11:36 | 24.06606 | 39.60229 | 18501 ft | 381 kts | 207° |
| 2026-04-27 11:36 | 24.04230 | 39.58907 | 19129 ft | 385 kts | 207° |
| 2026-04-27 11:37 | 24.01816 | 39.57565 | 19721 ft | 389 kts | 207° |
| 2026-04-27 11:37 | 23.99385 | 39.56213 | 20327 ft | 393 kts | 207° |
| 2026-04-27 11:37 | 23.96967 | 39.54868 | 20934 ft | 396 kts | 207° |
| 2026-04-27 11:37 | 23.94488 | 39.53489 | 21488 ft | 400 kts | 207° |
| 2026-04-27 11:38 | 23.92015 | 39.52114 | 22028 ft | 403 kts | 207° |
| 2026-04-27 11:38 | 23.89501 | 39.50716 | 22577 ft | 407 kts | 207° |
| 2026-04-27 11:38 | 23.86966 | 39.49306 | 23098 ft | 411 kts | 207° |
| 2026-04-27 11:38 | 23.84444 | 39.47903 | 23610 ft | 414 kts | 207° |
| 2026-04-27 11:39 | 23.81859 | 39.46465 | 24135 ft | 417 kts | 207° |
| 2026-04-27 11:39 | 23.79255 | 39.45016 | 24620 ft | 420 kts | 207° |
| 2026-04-27 11:39 | 23.76667 | 39.43578 | 25073 ft | 424 kts | 206° |
| 2026-04-27 11:39 | 23.73931 | 39.42305 | 25519 ft | 427 kts | 199° |
| 2026-04-27 11:40 | 23.71080 | 39.41312 | 25875 ft | 432 kts | 198° |
| 2026-04-27 11:40 | 23.68235 | 39.40338 | 25987 ft | 432 kts | 198° |
| 2026-04-27 11:40 | 23.65335 | 39.39339 | 26000 ft | 432 kts | 198° |
| 2026-04-27 11:40 | 23.62487 | 39.38357 | 26000 ft | 433 kts | 198° |
| 2026-04-27 11:41 | 23.59601 | 39.37360 | 26002 ft | 431 kts | 198° |
| 2026-04-27 11:41 | 23.56762 | 39.36378 | 26000 ft | 425 kts | 198° |
| 2026-04-27 11:41 | 23.53977 | 39.35414 | 26000 ft | 426 kts | 198° |
| 2026-04-27 11:41 | 23.51145 | 39.34435 | 26000 ft | 426 kts | 198° |
| 2026-04-27 11:42 | 23.48315 | 39.33457 | 26000 ft | 426 kts | 198° |
| 2026-04-27 11:42 | 23.45508 | 39.32488 | 26000 ft | 426 kts | 198° |
| 2026-04-27 11:42 | 23.42666 | 39.31507 | 26000 ft | 426 kts | 198° |
| 2026-04-27 11:42 | 23.39832 | 39.30530 | 26000 ft | 426 kts | 198° |
| 2026-04-27 11:43 | 23.37005 | 39.29556 | 26000 ft | 426 kts | 198° |
| 2026-04-27 11:43 | 23.34207 | 39.28592 | 26000 ft | 426 kts | 198° |
| 2026-04-27 11:43 | 23.31377 | 39.27617 | 26000 ft | 425 kts | 198° |
| 2026-04-27 11:43 | 23.28543 | 39.26641 | 26000 ft | 425 kts | 198° |
| 2026-04-27 11:44 | 23.25750 | 39.25680 | 26000 ft | 425 kts | 198° |
| 2026-04-27 11:44 | 23.22917 | 39.24706 | 26000 ft | 426 kts | 198° |
| 2026-04-27 11:44 | 23.20081 | 39.23731 | 26000 ft | 425 kts | 198° |
| 2026-04-27 11:44 | 23.17278 | 39.22768 | 26000 ft | 425 kts | 198° |
| 2026-04-27 11:45 | 23.14448 | 39.21796 | 26000 ft | 425 kts | 198° |
| 2026-04-27 11:45 | 23.12577 | 39.21153 | 26000 ft | 425 kts | 198° |
| 2026-04-27 11:45 | 23.08797 | 39.19856 | 26000 ft | 425 kts | 198° |
| 2026-04-27 11:45 | 23.06007 | 39.18898 | 26000 ft | 425 kts | 198° |
| 2026-04-27 11:46 | 23.03158 | 39.17922 | 26000 ft | 425 kts | 198° |
| 2026-04-27 11:46 | 23.00335 | 39.16954 | 26000 ft | 425 kts | 198° |
| 2026-04-27 11:46 | 22.97539 | 39.15996 | 26000 ft | 425 kts | 198° |
| 2026-04-27 11:46 | 22.94705 | 39.15026 | 26000 ft | 424 kts | 198° |
| 2026-04-27 11:47 | 22.91913 | 39.14070 | 26000 ft | 425 kts | 198° |
| 2026-04-27 11:47 | 22.89095 | 39.13106 | 25979 ft | 425 kts | 198° |
| 2026-04-27 11:47 | 22.86261 | 39.12137 | 25762 ft | 424 kts | 198° |
| 2026-04-27 11:47 | 22.83485 | 39.11188 | 25515 ft | 421 kts | 198° |
| 2026-04-27 11:48 | 22.80662 | 39.10347 | 25262 ft | 419 kts | 192° |
| 2026-04-27 11:48 | 22.77760 | 39.09881 | 25005 ft | 418 kts | 185° |
| 2026-04-27 11:48 | 22.74845 | 39.09802 | 24775 ft | 417 kts | 179° |
| 2026-04-27 11:48 | 22.71983 | 39.09888 | 24519 ft | 415 kts | 179° |
| 2026-04-27 11:49 | 22.69092 | 39.09972 | 24265 ft | 414 kts | 178° |
| 2026-04-27 11:49 | 22.66227 | 39.10068 | 24016 ft | 412 kts | 178° |
| 2026-04-27 11:49 | 22.63355 | 39.10167 | 23818 ft | 408 kts | 178° |
| 2026-04-27 11:49 | 22.60548 | 39.10263 | 23716 ft | 397 kts | 178° |
| 2026-04-27 11:50 | 22.57819 | 39.10355 | 23582 ft | 384 kts | 178° |
| 2026-04-27 11:50 | 22.55198 | 39.10442 | 23459 ft | 370 kts | 178° |
| 2026-04-27 11:50 | 22.52686 | 39.10525 | 23235 ft | 360 kts | 178° |
| 2026-04-27 11:50 | 22.50202 | 39.10601 | 22945 ft | 352 kts | 179° |
| 2026-04-27 11:51 | 22.47766 | 39.10625 | 22693 ft | 348 kts | 180° |
| 2026-04-27 11:51 | 22.45345 | 39.10624 | 22444 ft | 350 kts | 180° |
| 2026-04-27 11:51 | 22.40510 | 39.10627 | 21946 ft | 347 kts | 180° |
| 2026-04-27 11:52 | 22.38079 | 39.10635 | 21694 ft | 345 kts | 180° |
| 2026-04-27 11:52 | 22.35706 | 39.10646 | 21447 ft | 344 kts | 180° |
| 2026-04-27 11:52 | 22.33322 | 39.10658 | 21197 ft | 343 kts | 180° |
| 2026-04-27 11:52 | 22.30946 | 39.10670 | 20947 ft | 341 kts | 180° |
| 2026-04-27 11:53 | 22.28594 | 39.10682 | 20700 ft | 340 kts | 180° |
| 2026-04-27 11:53 | 22.26232 | 39.10694 | 20449 ft | 339 kts | 180° |
| 2026-04-27 11:53 | 22.23868 | 39.10707 | 20197 ft | 337 kts | 180° |
| 2026-04-27 11:53 | 22.21523 | 39.10719 | 19947 ft | 336 kts | 180° |
| 2026-04-27 11:54 | 22.19183 | 39.10730 | 19697 ft | 335 kts | 180° |
| 2026-04-27 11:54 | 22.16857 | 39.10742 | 19446 ft | 334 kts | 180° |
| 2026-04-27 11:54 | 22.14539 | 39.10754 | 19196 ft | 332 kts | 180° |
| 2026-04-27 11:54 | 22.12250 | 39.10766 | 18948 ft | 331 kts | 180° |
| 2026-04-27 11:55 | 22.09964 | 39.10609 | 18695 ft | 329 kts | 189° |
| 2026-04-27 11:55 | 22.07729 | 39.10059 | 18447 ft | 328 kts | 198° |
| 2026-04-27 11:55 | 22.05589 | 39.09221 | 18207 ft | 327 kts | 200° |
| 2026-04-27 11:55 | 22.03450 | 39.08371 | 17945 ft | 325 kts | 200° |
| 2026-04-27 11:56 | 22.01329 | 39.07538 | 17695 ft | 324 kts | 200° |
| 2026-04-27 11:56 | 21.99238 | 39.06719 | 17448 ft | 323 kts | 200° |
| 2026-04-27 11:56 | 21.97131 | 39.05894 | 17198 ft | 321 kts | 200° |
| 2026-04-27 11:56 | 21.95023 | 39.05070 | 16942 ft | 320 kts | 200° |
| 2026-04-27 11:57 | 21.92951 | 39.04258 | 16698 ft | 319 kts | 200° |
| 2026-04-27 11:57 | 21.90860 | 39.03440 | 16446 ft | 318 kts | 200° |
| 2026-04-27 11:57 | 21.88775 | 39.02624 | 16195 ft | 317 kts | 200° |
| 2026-04-27 11:57 | 21.86695 | 39.01810 | 15944 ft | 315 kts | 200° |
| 2026-04-27 11:58 | 21.84685 | 39.01024 | 15838 ft | 306 kts | 200° |
| 2026-04-27 11:58 | 21.82712 | 39.00252 | 15738 ft | 294 kts | 200° |
| 2026-04-27 11:58 | 21.80824 | 38.99515 | 15637 ft | 282 kts | 200° |
| 2026-04-27 11:58 | 21.79008 | 38.98816 | 15487 ft | 272 kts | 197° |
| 2026-04-27 11:59 | 21.77171 | 38.98621 | 15214 ft | 267 kts | 173° |
| 2026-04-27 11:59 | 21.75406 | 38.99169 | 14968 ft | 263 kts | 159° |
| 2026-04-27 11:59 | 21.73677 | 38.99877 | 14718 ft | 265 kts | 160° |
| 2026-04-27 11:59 | 21.71969 | 39.00567 | 14467 ft | 262 kts | 160° |
| 2026-04-27 12:00 | 21.70257 | 39.01254 | 14217 ft | 262 kts | 160° |
| 2026-04-27 12:00 | 21.68548 | 39.01938 | 13966 ft | 261 kts | 160° |
| 2026-04-27 12:00 | 21.66867 | 39.02611 | 13713 ft | 260 kts | 160° |
| 2026-04-27 12:00 | 21.65169 | 39.03288 | 13468 ft | 259 kts | 160° |
| 2026-04-27 12:01 | 21.63480 | 39.03950 | 13224 ft | 258 kts | 160° |
| 2026-04-27 12:01 | 21.61797 | 39.04607 | 12970 ft | 257 kts | 160° |
| 2026-04-27 12:01 | 21.60113 | 39.05265 | 12713 ft | 256 kts | 160° |
| 2026-04-27 12:01 | 21.58444 | 39.05917 | 12469 ft | 255 kts | 160° |
| 2026-04-27 12:02 | 21.56780 | 39.06569 | 12214 ft | 254 kts | 160° |
| 2026-04-27 12:02 | 21.55139 | 39.07211 | 11963 ft | 253 kts | 160° |
| 2026-04-27 12:02 | 21.53492 | 39.07856 | 11702 ft | 252 kts | 160° |
| 2026-04-27 12:02 | 21.51832 | 39.08506 | 11462 ft | 251 kts | 160° |
| 2026-04-27 12:03 | 21.50201 | 39.09147 | 11217 ft | 250 kts | 160° |
| 2026-04-27 12:03 | 21.48568 | 39.09794 | 10964 ft | 249 kts | 160° |
| 2026-04-27 12:03 | 21.46953 | 39.10433 | 10716 ft | 248 kts | 160° |
| 2026-04-27 12:03 | 21.45335 | 39.11073 | 10465 ft | 247 kts | 160° |
| 2026-04-27 12:04 | 21.43739 | 39.11704 | 10239 ft | 246 kts | 160° |
| 2026-04-27 12:04 | 21.42138 | 39.12336 | 10170 ft | 245 kts | 160° |
| 2026-04-27 12:04 | 21.40522 | 39.12975 | 10047 ft | 247 kts | 160° |
| 2026-04-27 12:04 | 21.38908 | 39.13613 | 9920 ft | 245 kts | 160° |
| 2026-04-27 12:05 | 21.37325 | 39.14239 | 9801 ft | 245 kts | 160° |
| 2026-04-27 12:05 | 21.35725 | 39.14871 | 9673 ft | 245 kts | 160° |
| 2026-04-27 12:05 | 21.34124 | 39.15504 | 9545 ft | 244 kts | 160° |
| 2026-04-27 12:05 | 21.32532 | 39.16133 | 9420 ft | 244 kts | 160° |
| 2026-04-27 12:06 | 21.30940 | 39.16762 | 9296 ft | 243 kts | 160° |
| 2026-04-27 12:06 | 21.29352 | 39.17390 | 9170 ft | 243 kts | 160° |
| 2026-04-27 12:06 | 21.27768 | 39.18016 | 9043 ft | 242 kts | 160° |
| 2026-04-27 12:06 | 21.26215 | 39.18662 | 8915 ft | 242 kts | 152° |
| 2026-04-27 12:07 | 21.24980 | 39.19869 | 8791 ft | 242 kts | 121° |
| 2026-04-27 12:07 | 21.24496 | 39.21581 | 8669 ft | 242 kts | 89° |
| 2026-04-27 12:07 | 21.24840 | 39.23341 | 8544 ft | 243 kts | 69° |
| 2026-04-27 12:07 | 21.25471 | 39.25004 | 8246 ft | 244 kts | 66° |
| 2026-04-27 12:08 | 21.26152 | 39.26683 | 7923 ft | 243 kts | 65° |
| 2026-04-27 12:08 | 21.27131 | 39.28116 | 7604 ft | 240 kts | 36° |
| 2026-04-27 12:08 | 21.28643 | 39.28807 | 7290 ft | 237 kts | 5° |
| 2026-04-27 12:08 | 21.30256 | 39.28564 | 6991 ft | 234 kts | 339° |
| 2026-04-27 12:09 | 21.31766 | 39.27952 | 6684 ft | 234 kts | 338° |
| 2026-04-27 12:09 | 21.33285 | 39.27309 | 6367 ft | 233 kts | 338° |
| 2026-04-27 12:09 | 21.34785 | 39.26706 | 6236 ft | 224 kts | 339° |
| 2026-04-27 12:09 | 21.36193 | 39.26156 | 6117 ft | 213 kts | 339° |
| 2026-04-27 12:10 | 21.37570 | 39.25614 | 5948 ft | 203 kts | 339° |
| 2026-04-27 12:10 | 21.38853 | 39.25108 | 5716 ft | 190 kts | 339° |
| 2026-04-27 12:10 | 21.40047 | 39.24637 | 5490 ft | 174 kts | 339° |
| 2026-04-27 12:10 | 21.41124 | 39.24213 | 5296 ft | 159 kts | 339° |
| 2026-04-27 12:11 | 21.42109 | 39.23824 | 5104 ft | 144 kts | 339° |
| 2026-04-27 12:11 | 21.43032 | 39.23461 | 4928 ft | 142 kts | 339° |
| 2026-04-27 12:11 | 21.43963 | 39.23092 | 4745 ft | 141 kts | 339° |
| 2026-04-27 12:11 | 21.44869 | 39.22734 | 4568 ft | 141 kts | 339° |
| 2026-04-27 12:12 | 21.45792 | 39.22369 | 4388 ft | 141 kts | 339° |
| 2026-04-27 12:12 | 21.46403 | 39.22128 | 4260 ft | 140 kts | 339° |
| 2026-04-27 12:12 | 21.47320 | 39.21765 | 4083 ft | 140 kts | 339° |
| 2026-04-27 12:12 | 21.48527 | 39.21288 | 3832 ft | 139 kts | 339° |
| 2026-04-27 12:13 | 21.49436 | 39.20930 | 3654 ft | 139 kts | 339° |
| 2026-04-27 12:13 | 21.50037 | 39.20692 | 3532 ft | 138 kts | 339° |
| 2026-04-27 12:13 | 21.51239 | 39.20217 | 3288 ft | 138 kts | 339° |
| 2026-04-27 12:13 | 21.51842 | 39.19978 | 3167 ft | 138 kts | 339° |
| 2026-04-27 12:14 | 21.53039 | 39.19505 | 2922 ft | 137 kts | 339° |
| 2026-04-27 12:14 | 21.53633 | 39.19271 | 2796 ft | 137 kts | 339° |
| 2026-04-27 12:14 | 21.54531 | 39.18915 | 2619 ft | 137 kts | 339° |
| 2026-04-27 12:14 | 21.55421 | 39.18563 | 2436 ft | 136 kts | 339° |
| 2026-04-27 12:15 | 21.56315 | 39.18210 | 2256 ft | 136 kts | 339° |
| 2026-04-27 12:15 | 21.57189 | 39.17863 | 2078 ft | 135 kts | 339° |
| 2026-04-27 12:15 | 21.58075 | 39.17513 | 1890 ft | 135 kts | 339° |
| 2026-04-27 12:15 | 21.58961 | 39.17162 | 1717 ft | 135 kts | 339° |
| 2026-04-27 12:16 | 21.59829 | 39.16819 | 1536 ft | 134 kts | 339° |
| 2026-04-27 12:16 | 21.60706 | 39.16471 | 1360 ft | 134 kts | 339° |
| 2026-04-27 12:16 | 21.61585 | 39.16124 | 1183 ft | 134 kts | 339° |
| 2026-04-27 12:16 | 21.62454 | 39.15780 | 1005 ft | 133 kts | 339° |
| 2026-04-27 12:17 | 21.63303 | 39.15443 | 828 ft | 133 kts | 339° |
| 2026-04-27 12:17 | 21.64180 | 39.15097 | 655 ft | 132 kts | 340° |
| 2026-04-27 12:17 | 21.65047 | 39.14759 | 481 ft | 133 kts | 339° |
| 2026-04-27 12:17 | 21.65910 | 39.14406 | 297 ft | 132 kts | 338° |
| 2026-04-27 12:18 | 21.66766 | 39.14040 | 140 ft | 132 kts | 345° |
| 2026-04-27 12:18 | 21.67636 | 39.13710 | 50 ft | 132 kts | 345° |
| 2026-04-27 12:18 | 21.68402 | 39.13444 | 24 ft | 87 kts | 340° |
| 2026-04-27 12:18 | 21.68717 | 39.13305 | 22 ft | 11 kts | 338° |
| 2026-04-27 12:19 | 21.68819 | 39.13261 | 23 ft | 19 kts | 338° |
| 2026-04-27 12:19 | 21.68948 | 39.13206 | 24 ft | 20 kts | 339° |
| 2026-04-27 12:19 | 21.69076 | 39.13125 | 25 ft | 21 kts | 322° |
| 2026-04-27 12:19 | 21.69164 | 39.13027 | 22 ft | 13 kts | 308° |
| 2026-04-27 12:20 | 21.69197 | 39.12957 | 23 ft | 9 kts | 267° |
| 2026-04-27 12:20 | 21.69150 | 39.12918 | 22 ft | 11 kts | 177° |
| 2026-04-27 12:20 | 21.69073 | 39.12946 | 24 ft | 12 kts | 159° |
| 2026-04-27 12:20 | 21.68983 | 39.12982 | 24 ft | 15 kts | 159° |
| 2026-04-27 12:21 | 21.68873 | 39.13025 | 25 ft | 18 kts | 160° |
| 2026-04-27 12:21 | 21.68747 | 39.13075 | 23 ft | 20 kts | 160° |
| 2026-04-27 12:21 | 21.68608 | 39.13130 | 24 ft | 23 kts | 159° |
| 2026-04-27 12:21 | 21.68452 | 39.13191 | 23 ft | 25 kts | 160° |
| 2026-04-27 12:22 | 21.68285 | 39.13257 | 24 ft | 25 kts | 160° |
| 2026-04-27 12:22 | 21.68143 | 39.13312 | 23 ft | 22 kts | 160° |
| 2026-04-27 12:22 | 21.67997 | 39.13370 | 23 ft | 24 kts | 160° |
| 2026-04-27 12:22 | 21.67835 | 39.13433 | 24 ft | 26 kts | 161° |
| 2026-04-27 12:23 | 21.67663 | 39.13501 | 23 ft | 27 kts | 159° |
| 2026-04-27 12:23 | 21.67488 | 39.13569 | 25 ft | 25 kts | 161° |
| 2026-04-27 12:23 | 21.67347 | 39.13619 | 25 ft | 7 kts | 176° |
| 2026-04-27 12:23 | 21.67289 | 39.13604 | 23 ft | 11 kts | 200° |
| 2026-04-27 12:24 | 21.67210 | 39.13572 | 23 ft | 13 kts | 189° |
| 2026-04-27 12:24 | 21.67199 | 39.13571 | 23 ft | 2 kts | 179° |
| 2026-04-27 12:24 | 21.67169 | 39.13578 | 24 ft | 7 kts | 162° |
| 2026-04-27 12:24 | 21.67133 | 39.13605 | 25 ft | 0 kts | 134° |